Time;durP1;ratioP1;P1;durP2;ratioP2;P2;SDS_P1;SDS_P2;PMS_P1;PMS_P2;Temp;Humidity;BMP_temperature;BMP_pressure;BME280_temperature;BME280_humidity;BME280_pressure;Samples;Min_cycle;Max_cycle;Signal;HPM_P1;HPM_P2
2022/01/28 00:01:05;;;;;;;10.88;1.50;;;5.30;99.90;;;;;;7177188;33;20315;-61
2022/01/28 00:05:14;;;;;;;12.30;1.87;;;5.40;99.90;;;;;;7175925;33;20151;-61
2022/01/28 00:09:16;;;;;;;11.63;1.70;;;5.40;99.90;;;;;;7172531;33;20105;-60
2022/01/28 00:38:47;;;;;;;14.63;1.90;;;5.50;99.90;;;;;;7172693;32;20109;-61
2022/01/28 00:42:48;;;;;;;14.07;1.95;;;5.40;99.90;;;;;;7179227;32;20204;-61
2022/01/28 00:46:50;;;;;;;9.65;1.52;;;5.30;99.90;;;;;;7175430;32;20117;-61
2022/01/28 00:50:52;;;;;;;21.98;2.62;;;5.30;99.90;;;;;;7179804;32;20470;-60
2022/01/28 00:54:54;;;;;;;11.65;1.85;;;5.20;99.90;;;;;;7173590;32;20795;-61
2022/01/28 00:58:55;;;;;;;15.75;2.17;;;5.20;99.90;;;;;;7170901;32;20215;-61
2022/01/28 01:02:57;;;;;;;10.50;2.00;;;5.00;99.90;;;;;;7173496;32;20219;-60
2022/01/28 01:07:01;;;;;;;14.27;1.98;;;4.90;99.90;;;;;;7172739;32;20128;-61
2022/01/28 01:11:04;;;;;;;12.13;2.15;;;4.90;99.90;;;;;;7158022;33;20477;-61
2022/01/28 01:15:07;;;;;;;12.43;1.80;;;4.80;99.90;;;;;;7176945;33;20545;-61
2022/01/28 01:23:28;;;;;;;18.87;2.55;;;4.80;99.90;;;;;;7176352;33;20110;-61
2022/01/28 01:27:30;;;;;;;16.55;2.08;;;4.70;99.90;;;;;;7170190;33;20136;-61
2022/01/28 01:31:31;;;;;;;13.93;2.37;;;4.60;99.90;;;;;;7169467;33;20106;-61
2022/01/28 01:35:34;;;;;;;17.55;1.95;;;4.60;99.90;;;;;;7177247;33;20243;-61
2022/01/28 01:39:37;;;;;;;11.45;2.10;;;4.50;99.90;;;;;;7176400;33;20240;-61
2022/01/28 01:52:19;;;;;;;11.82;2.00;;;4.20;99.90;;;;;;7166166;32;20109;-61
2022/01/28 01:56:21;;;;;;;14.50;2.25;;;4.10;99.90;;;;;;7177762;32;20436;-60
2022/01/28 02:00:22;;;;;;;20.23;2.55;;;4.00;99.90;;;;;;7182138;32;20351;-60
2022/01/28 02:04:24;;;;;;;17.33;2.78;;;4.00;99.90;;;;;;7183536;33;20114;-59
2022/01/28 02:08:29;;;;;;;13.07;2.97;;;3.90;99.90;;;;;;7177396;32;20359;-61
2022/01/28 02:12:52;;;;;;;11.05;1.80;;;3.90;99.90;;;;;;7181791;32;20509;-60
2022/01/28 02:16:53;;;;;;;15.70;1.83;;;3.70;99.90;;;;;;7179032;32;20468;-59
2022/01/28 02:21:03;;;;;;;16.45;2.22;;;3.80;99.90;;;;;;7178160;32;20131;-60
2022/01/28 02:25:05;;;;;;;6.35;1.25;;;3.70;99.90;;;;;;7177688;32;20439;-60
2022/01/28 02:29:11;;;;;;;11.52;2.10;;;3.70;99.90;;;;;;7177446;32;20509;-59
2022/01/28 02:33:19;;;;;;;16.67;1.65;;;3.60;99.90;;;;;;7174969;32;20137;-60
2022/01/28 02:37:22;;;;;;;12.55;1.60;;;3.60;99.90;;;;;;7179184;32;20216;-60
2022/01/28 02:41:27;;;;;;;9.70;1.40;;;3.60;99.90;;;;;;7180360;32;20220;-60
2022/01/28 02:45:34;;;;;;;9.00;1.67;;;3.70;99.90;;;;;;7181090;32;20118;-61
2022/01/28 02:49:37;;;;;;;8.02;1.40;;;3.70;99.90;;;;;;7177207;32;20596;-61
2022/01/28 02:53:47;;;;;;;9.65;1.67;;;3.60;99.90;;;;;;7183029;32;20200;-61
2022/01/28 02:58:02;;;;;;;15.98;1.98;;;3.60;99.90;;;;;;7164945;32;20141;-61
2022/01/28 03:02:04;;;;;;;16.33;1.40;;;3.40;99.90;;;;;;7178179;32;20113;-61
2022/01/28 03:06:06;;;;;;;11.63;2.15;;;3.40;99.90;;;;;;7177000;32;20578;-60
2022/01/28 03:18:18;;;;;;;9.40;1.52;;;3.30;99.90;;;;;;7174263;32;20205;-62
2022/01/28 03:22:22;;;;;;;9.85;1.12;;;3.20;99.90;;;;;;7174473;32;20113;-60
2022/01/28 03:26:26;;;;;;;18.87;2.05;;;3.20;99.90;;;;;;7172910;32;20204;-60
2022/01/28 03:30:31;;;;;;;9.40;1.30;;;3.20;99.90;;;;;;7175517;32;20164;-61
2022/01/28 03:34:33;;;;;;;10.77;1.92;;;3.00;99.90;;;;;;7178639;32;20128;-59
2022/01/28 03:38:36;;;;;;;12.65;1.30;;;2.90;99.90;;;;;;7173320;32;20113;-58
2022/01/28 03:42:38;;;;;;;13.38;1.62;;;2.80;99.90;;;;;;7175672;32;20211;-59
2022/01/28 03:46:40;;;;;;;10.55;1.42;;;2.70;99.90;;;;;;7176662;32;20131;-58
2022/01/28 03:50:42;;;;;;;13.15;1.30;;;2.90;99.90;;;;;;7172231;32;20332;-58
2022/01/28 03:54:43;;;;;;;13.65;1.98;;;3.10;99.90;;;;;;7166707;32;20132;-58
2022/01/28 03:58:45;;;;;;;16.15;1.92;;;3.10;99.90;;;;;;7174886;32;20113;-59
2022/01/28 04:02:47;;;;;;;13.40;1.37;;;3.20;99.90;;;;;;7171659;32;20416;-59
2022/01/28 04:16:05;;;;;;;13.97;1.63;;;3.10;99.90;;;;;;7150143;32;20188;-58
2022/01/28 04:20:08;;;;;;;8.05;1.10;;;3.10;99.90;;;;;;7178669;32;20635;-59
2022/01/28 04:24:09;;;;;;;12.02;1.35;;;3.20;99.90;;;;;;7173921;32;20482;-58
2022/01/28 04:28:11;;;;;;;11.18;1.25;;;3.20;99.90;;;;;;7174385;32;20108;-59
2022/01/28 04:32:13;;;;;;;9.63;1.65;;;3.30;99.90;;;;;;7169348;32;21241;-58
2022/01/28 04:36:16;;;;;;;9.18;1.15;;;3.20;99.90;;;;;;7167595;32;20208;-58
2022/01/28 04:40:22;;;;;;;8.75;2.03;;;3.20;99.90;;;;;;7170558;32;20207;-58
2022/01/28 04:44:34;;;;;;;12.85;1.23;;;3.30;99.90;;;;;;7170944;32;20549;-61
2022/01/28 04:49:15;;;;;;;7.85;1.30;;;3.40;99.90;;;;;;7169934;32;20105;-61
2022/01/28 04:53:19;;;;;;;7.70;1.40;;;3.40;99.90;;;;;;7164235;32;20128;-58
2022/01/28 04:57:35;;;;;;;8.70;1.30;;;3.50;99.90;;;;;;7176469;32;20196;-58
2022/01/28 05:06:31;;;;;;;7.60;1.37;;;3.40;99.90;;;;;;7173462;32;20128;-61
2022/01/28 05:15:12;;;;;;;13.48;2.00;;;3.20;99.90;;;;;;7171309;33;20626;-61
2022/01/28 05:24:33;;;;;;;12.27;1.90;;;3.00;99.90;;;;;;7175560;33;20237;-61
2022/01/28 05:27:52;;;;;;;10.57;1.40;;;3.00;99.90;;;;;;7159011;32;20113;-61
2022/01/28 05:31:53;;;;;;;12.88;1.10;;;3.00;99.90;;;;;;7180729;32;20271;-62
2022/01/28 05:35:55;;;;;;;11.63;1.75;;;3.00;99.90;;;;;;7180754;32;20133;-61
2022/01/28 05:39:57;;;;;;;18.62;1.95;;;2.90;99.90;;;;;;7171750;32;20148;-61
2022/01/28 05:44:00;;;;;;;13.80;1.83;;;2.90;99.90;;;;;;7179158;32;20192;-61
2022/01/28 05:48:02;;;;;;;12.93;1.45;;;2.80;99.90;;;;;;7177996;32;20623;-61
2022/01/28 05:52:04;;;;;;;10.20;1.75;;;2.80;99.90;;;;;;7179403;32;20319;-61
2022/01/28 05:56:06;;;;;;;12.05;1.80;;;2.70;99.90;;;;;;7180368;32;20105;-61
2022/01/28 06:00:08;;;;;;;7.82;1.23;;;2.60;99.90;;;;;;7175874;32;20530;-61
2022/01/28 06:04:09;;;;;;;12.48;2.60;;;2.60;99.90;;;;;;7162892;32;20251;-61
2022/01/28 06:08:11;;;;;;;7.47;1.75;;;2.40;99.90;;;;;;7179601;32;20124;-61
2022/01/28 06:12:13;;;;;;;12.93;1.87;;;2.20;99.90;;;;;;7180984;32;20160;-61
2022/01/28 06:16:16;;;;;;;17.77;1.85;;;2.30;99.90;;;;;;7181785;32;20145;-61
2022/01/28 06:20:19;;;;;;;11.45;1.58;;;2.50;99.90;;;;;;7177186;32;20254;-61
2022/01/28 06:24:21;;;;;;;10.32;1.98;;;2.60;99.90;;;;;;7175959;32;20171;-61
2022/01/28 06:28:22;;;;;;;12.10;1.50;;;2.60;99.90;;;;;;7182769;32;20122;-62
2022/01/28 06:32:24;;;;;;;8.88;1.62;;;2.60;99.90;;;;;;7179363;32;20113;-61
2022/01/28 06:36:26;;;;;;;6.28;1.10;;;2.60;99.90;;;;;;7177592;32;20128;-61
2022/01/28 06:40:27;;;;;;;7.95;1.65;;;2.60;99.90;;;;;;7177971;32;20271;-62
2022/01/28 06:44:31;;;;;;;9.13;1.80;;;2.50;99.90;;;;;;7181851;33;20136;-62
2022/01/28 06:48:33;;;;;;;11.23;1.40;;;2.40;99.90;;;;;;7176650;32;20105;-61
2022/01/28 06:52:35;;;;;;;8.32;1.52;;;2.30;99.90;;;;;;7181152;32;20124;-61
2022/01/28 06:56:37;;;;;;;10.77;1.30;;;2.30;99.90;;;;;;7180454;32;20254;-61
2022/01/28 07:00:40;;;;;;;11.10;2.53;;;2.20;99.90;;;;;;7179119;32;20188;-62
2022/01/28 07:04:42;;;;;;;15.13;2.70;;;2.20;99.90;;;;;;7178532;32;20101;-61
2022/01/28 07:08:44;;;;;;;11.45;1.90;;;2.30;99.90;;;;;;7177582;32;20432;-60
2022/01/28 07:12:45;;;;;;;12.07;1.48;;;2.30;99.90;;;;;;7177350;32;20094;-60
2022/01/28 07:16:47;;;;;;;14.20;1.50;;;2.40;99.90;;;;;;7176352;32;20828;-59
2022/01/28 07:20:49;;;;;;;17.67;1.83;;;2.30;99.90;;;;;;7175112;32;20141;-59
2022/01/28 07:24:50;;;;;;;12.45;2.22;;;2.30;99.90;;;;;;7178011;32;20555;-59
2022/01/28 07:28:53;;;;;;;9.02;1.62;;;2.30;99.90;;;;;;7174972;32;20132;-59
2022/01/28 07:32:54;;;;;;;11.85;1.85;;;2.20;99.90;;;;;;7160121;32;20208;-58
2022/01/28 07:36:56;;;;;;;11.52;1.85;;;2.30;99.90;;;;;;7171657;32;20502;-58
2022/01/28 07:40:59;;;;;;;10.63;1.90;;;2.20;99.90;;;;;;7162249;32;20239;-59
2022/01/28 07:45:00;;;;;;;13.98;1.98;;;2.20;99.90;;;;;;7171751;32;20640;-59
2022/01/28 07:49:03;;;;;;;8.30;1.73;;;2.20;99.90;;;;;;7172790;32;20573;-58
2022/01/28 07:53:05;;;;;;;13.60;2.30;;;2.30;99.90;;;;;;7172343;32;20715;-59
2022/01/28 07:57:07;;;;;;;5.85;1.77;;;2.30;99.90;;;;;;7172528;32;20193;-59
2022/01/28 08:01:09;;;;;;;11.40;2.15;;;2.30;99.90;;;;;;7175142;32;20557;-58
2022/01/28 08:05:12;;;;;;;21.40;2.45;;;2.40;99.90;;;;;;7170833;32;20156;-59
2022/01/28 08:09:13;;;;;;;16.80;3.65;;;2.60;99.90;;;;;;7172444;32;20227;-58
2022/01/28 08:13:15;;;;;;;12.02;1.80;;;2.80;99.90;;;;;;7174503;32;20102;-59
2022/01/28 08:17:17;;;;;;;18.12;2.50;;;2.80;99.90;;;;;;7173458;32;20105;-59
2022/01/28 08:21:19;;;;;;;13.85;2.15;;;2.90;99.90;;;;;;7176479;32;20868;-58
2022/01/28 08:25:23;;;;;;;14.25;2.22;;;3.10;99.90;;;;;;7174284;32;20521;-61
2022/01/28 08:29:25;;;;;;;16.92;2.40;;;3.30;99.90;;;;;;7176876;33;20522;-59
2022/01/28 08:33:27;;;;;;;14.98;2.45;;;3.50;99.90;;;;;;7176383;32;20132;-59
2022/01/28 08:37:29;;;;;;;10.68;2.20;;;3.60;99.90;;;;;;7172315;32;20654;-59
2022/01/28 08:41:32;;;;;;;8.07;2.40;;;3.70;99.90;;;;;;7172032;33;20135;-59
2022/01/28 08:45:34;;;;;;;19.17;2.80;;;3.80;99.90;;;;;;7166301;33;20188;-60
2022/01/28 08:49:36;;;;;;;9.48;2.15;;;4.00;99.90;;;;;;7179156;32;20113;-63
2022/01/28 08:53:39;;;;;;;15.38;2.47;;;4.30;99.90;;;;;;7177975;33;20200;-60
2022/01/28 08:57:44;;;;;;;13.10;1.90;;;4.40;99.90;;;;;;7180751;32;20655;-61
2022/01/28 09:01:46;;;;;;;7.68;2.20;;;4.50;99.90;;;;;;7166075;33;20118;-60
2022/01/28 09:05:48;;;;;;;8.73;2.22;;;4.50;99.90;;;;;;7161147;33;20187;-60
2022/01/28 09:09:52;;;;;;;14.25;2.35;;;4.50;99.90;;;;;;7149919;33;20113;-60
2022/01/28 09:13:55;;;;;;;10.02;2.03;;;4.70;99.90;;;;;;7145378;33;20470;-60
2022/01/28 09:17:58;;;;;;;16.25;2.60;;;4.90;99.90;;;;;;7159965;33;20131;-60
2022/01/28 09:22:01;;;;;;;14.02;2.85;;;5.00;99.90;;;;;;7160081;33;20315;-60
2022/01/28 09:26:03;;;;;;;9.02;2.60;;;5.20;99.90;;;;;;7150147;33;20478;-60
2022/01/28 09:30:05;;;;;;;11.35;2.97;;;5.30;99.90;;;;;;7150211;33;20155;-60
2022/01/28 09:34:07;;;;;;;13.32;3.03;;;5.30;99.90;;;;;;7152320;33;20224;-61
2022/01/28 09:38:09;;;;;;;12.37;2.45;;;5.30;99.90;;;;;;7155094;33;20329;-60
2022/01/28 09:42:15;;;;;;;9.60;2.53;;;5.40;99.90;;;;;;7155770;33;20477;-59
2022/01/28 09:46:17;;;;;;;18.33;3.35;;;5.70;99.90;;;;;;7156693;33;20139;-60
2022/01/28 09:50:21;;;;;;;16.60;2.83;;;5.70;99.90;;;;;;7160164;33;20271;-61
2022/01/28 09:54:23;;;;;;;12.50;3.10;;;5.80;99.90;;;;;;7155259;33;20188;-60
2022/01/28 09:58:25;;;;;;;11.18;2.78;;;5.80;99.90;;;;;;7159862;33;20127;-60
2022/01/28 10:02:46;;;;;;;10.52;2.30;;;5.60;99.90;;;;;;7165440;33;20145;-59
2022/01/28 10:06:49;;;;;;;20.77;3.62;;;5.80;99.90;;;;;;7169800;33;20106;-59
2022/01/28 10:10:54;;;;;;;16.25;3.28;;;5.90;99.90;;;;;;7172722;33;20130;-60
2022/01/28 10:15:17;;;;;;;11.05;2.97;;;5.80;99.90;;;;;;7177603;33;20117;-59
2022/01/28 10:19:19;;;;;;;11.32;2.75;;;5.80;99.90;;;;;;7176663;32;20560;-60
2022/01/28 10:23:22;;;;;;;17.65;3.12;;;5.90;99.90;;;;;;7182812;32;20134;-60
2022/01/28 10:27:24;;;;;;;13.68;3.03;;;6.10;99.90;;;;;;7180677;32;20208;-60
2022/01/28 10:31:41;;;;;;;14.15;2.45;;;6.30;99.90;;;;;;7175895;32;20141;-60
2022/01/28 10:35:54;;;;;;;15.20;2.35;;;6.50;99.90;;;;;;7180135;32;20105;-59
2022/01/28 10:40:01;;;;;;;12.90;2.08;;;6.60;99.90;;;;;;7183052;33;20132;-60
2022/01/28 10:44:02;;;;;;;11.10;2.20;;;6.50;99.90;;;;;;7177266;33;20514;-61
2022/01/28 10:48:04;;;;;;;15.10;2.55;;;6.80;99.90;;;;;;7185077;33;20127;-60
2022/01/28 10:52:13;;;;;;;12.10;2.12;;;6.90;99.90;;;;;;7185710;33;20167;-61
2022/01/28 10:56:15;;;;;;;8.77;2.15;;;6.90;99.90;;;;;;7185989;33;20131;-61
2022/01/28 11:00:17;;;;;;;19.98;2.30;;;6.80;99.90;;;;;;7182600;32;20109;-59
2022/01/28 11:04:20;;;;;;;15.98;2.87;;;6.90;99.90;;;;;;7181854;33;20944;-59
2022/01/28 11:08:25;;;;;;;15.02;2.20;;;6.80;99.90;;;;;;7175366;32;20108;-60
2022/01/28 11:12:28;;;;;;;14.63;2.37;;;6.80;99.90;;;;;;7177180;33;20212;-60
2022/01/28 11:16:30;;;;;;;21.33;2.97;;;6.80;99.90;;;;;;7178064;33;20133;-59
2022/01/28 11:21:13;;;;;;;17.30;2.60;;;6.80;99.90;;;;;;7181331;32;20132;-61
2022/01/28 11:25:43;;;;;;;12.60;2.17;;;6.60;99.90;;;;;;7174809;33;20113;-59
2022/01/28 11:29:45;;;;;;;16.73;2.03;;;6.80;99.90;;;;;;7178404;32;20180;-60
2022/01/28 11:33:51;;;;;;;11.95;2.83;;;6.90;99.90;;;;;;7176047;32;20129;-60
2022/01/28 11:37:56;;;;;;;13.20;1.80;;;7.00;99.90;;;;;;7176258;32;20227;-59
2022/01/28 11:42:02;;;;;;;10.65;1.75;;;7.00;99.90;;;;;;7171849;32;20766;-61
2022/01/28 11:46:08;;;;;;;11.90;1.80;;;7.00;99.90;;;;;;7174108;33;20204;-62
2022/01/28 11:50:14;;;;;;;22.15;2.47;;;6.90;99.90;;;;;;7180429;32;20117;-60
2022/01/28 11:54:20;;;;;;;10.82;2.10;;;6.90;99.90;;;;;;7178574;32;20106;-61
2022/01/28 11:58:22;;;;;;;16.33;2.40;;;6.80;99.90;;;;;;7168355;32;20143;-60
2022/01/28 12:02:24;;;;;;;12.75;1.98;;;6.90;99.90;;;;;;7165455;32;20904;-60
2022/01/28 12:06:27;;;;;;;14.87;3.08;;;7.00;99.90;;;;;;7177589;32;20401;-61
2022/01/28 12:10:32;;;;;;;17.10;2.55;;;7.10;99.90;;;;;;7162321;33;20635;-60
2022/01/28 12:14:49;;;;;;;16.87;2.67;;;7.20;99.90;;;;;;7160597;33;20117;-59
2022/01/28 12:18:57;;;;;;;16.08;3.03;;;7.60;99.90;;;;;;7176869;32;20140;-61
2022/01/28 12:23:08;;;;;;;15.23;3.22;;;7.80;99.90;;;;;;7181587;32;20922;-60
2022/01/28 12:27:13;;;;;;;13.32;2.08;;;7.90;99.90;;;;;;7173803;32;20272;-60
2022/01/28 12:31:31;;;;;;;16.75;3.50;;;7.80;99.90;;;;;;7149516;32;20114;-61
2022/01/28 12:35:33;;;;;;;12.13;2.45;;;7.80;99.90;;;;;;7174091;33;20204;-60
2022/01/28 12:39:44;;;;;;;15.05;2.45;;;7.80;99.90;;;;;;7173692;32;20118;-60
2022/01/28 12:43:45;;;;;;;13.02;4.07;;;7.80;99.90;;;;;;7161432;32;20334;-60
2022/01/28 12:47:47;;;;;;;12.90;2.45;;;7.70;99.90;;;;;;7148623;33;20140;-60
2022/01/28 12:51:54;;;;;;;9.25;1.52;;;7.90;99.90;;;;;;7150776;33;20413;-60
2022/01/28 12:55:57;;;;;;;8.93;1.80;;;7.80;99.90;;;;;;7176062;32;20130;-61
2022/01/28 12:59:59;;;;;;;8.68;1.40;;;7.50;99.90;;;;;;7169245;33;20168;-60
2022/01/28 13:04:11;;;;;;;13.57;1.48;;;7.50;99.90;;;;;;7165601;33;20581;-60
2022/01/28 13:08:25;;;;;;;8.45;1.52;;;7.30;99.90;;;;;;7162262;33;20572;-60
2022/01/28 13:12:29;;;;;;;14.15;2.15;;;7.10;99.90;;;;;;7150042;33;20131;-60
2022/01/28 13:16:35;;;;;;;12.50;1.75;;;6.80;99.90;;;;;;7155477;33;20105;-60
2022/01/28 13:20:42;;;;;;;8.75;2.35;;;6.80;99.90;;;;;;7175932;33;20689;-59
2022/01/28 13:24:43;;;;;;;13.43;2.27;;;6.80;99.90;;;;;;7179228;33;20211;-59
2022/01/28 13:28:45;;;;;;;14.50;2.22;;;6.90;99.90;;;;;;7168787;33;20131;-59
2022/01/28 13:32:50;;;;;;;11.85;1.70;;;7.00;99.90;;;;;;7169441;33;20128;-60
2022/01/28 13:36:56;;;;;;;14.30;1.67;;;7.00;99.90;;;;;;7174071;33;20788;-60
2022/01/28 13:40:58;;;;;;;9.57;2.22;;;7.00;99.90;;;;;;7174836;33;20098;-60
2022/01/28 13:45:04;;;;;;;11.27;1.50;;;7.30;99.90;;;;;;7169750;33;20200;-61
2022/01/28 13:49:14;;;;;;;10.33;1.67;;;7.70;99.90;;;;;;7175989;32;20105;-60
2022/01/28 13:57:29;;;;;;;11.48;1.48;;;7.80;99.90;;;;;;7177416;32;20154;-59
2022/01/28 14:01:34;;;;;;;12.23;1.90;;;7.60;99.90;;;;;;7175591;32;20219;-59
2022/01/28 14:05:53;;;;;;;9.25;1.42;;;7.30;99.90;;;;;;7179686;32;20110;-60
2022/01/28 14:10:16;;;;;;;11.68;1.50;;;7.10;99.90;;;;;;7176147;32;20132;-59
2022/01/28 14:14:24;;;;;;;10.40;1.60;;;6.90;99.90;;;;;;7180409;32;20256;-60
2022/01/28 14:18:31;;;;;;;14.32;2.42;;;7.10;99.90;;;;;;7176526;32;20540;-59
2022/01/28 14:22:34;;;;;;;10.32;1.92;;;7.20;99.90;;;;;;7176538;32;20147;-60
2022/01/28 14:26:43;;;;;;;8.07;1.20;;;7.40;99.90;;;;;;7178721;32;20105;-59
2022/01/28 14:30:54;;;;;;;15.18;2.33;;;7.60;99.90;;;;;;7181036;32;20514;-59
2022/01/28 14:34:56;;;;;;;9.52;1.75;;;8.10;99.90;;;;;;7175396;32;20144;-59
2022/01/28 14:38:58;;;;;;;11.70;2.03;;;8.10;99.90;;;;;;7174860;32;20109;-60
2022/01/28 14:43:02;;;;;;;11.43;1.70;;;7.90;99.90;;;;;;7168811;32;20196;-59
2022/01/28 14:47:05;;;;;;;6.22;1.42;;;7.80;99.90;;;;;;7174434;32;20135;-59
2022/01/28 14:51:11;;;;;;;10.15;1.50;;;7.80;99.90;;;;;;7177863;32;20193;-59
2022/01/28 14:55:12;;;;;;;9.70;1.60;;;7.70;99.90;;;;;;7176593;32;20149;-60
2022/01/28 14:59:14;;;;;;;8.30;1.20;;;7.70;99.90;;;;;;7175115;32;20791;-60
2022/01/28 15:03:16;;;;;;;6.37;1.85;;;7.60;99.90;;;;;;7161182;33;20113;-60
2022/01/28 15:07:19;;;;;;;6.72;1.80;;;7.50;99.90;;;;;;7157722;33;21172;-61
2022/01/28 15:11:32;;;;;;;8.68;1.50;;;7.40;99.90;;;;;;7156114;33;20215;-60
2022/01/28 15:15:38;;;;;;;10.77;2.03;;;7.30;99.90;;;;;;7156369;33;20128;-60
2022/01/28 15:19:40;;;;;;;8.48;2.00;;;7.20;99.90;;;;;;7165475;33;20139;-59
2022/01/28 15:23:42;;;;;;;8.95;3.12;;;7.00;99.90;;;;;;7158340;33;20213;-60
2022/01/28 15:27:46;;;;;;;9.18;2.28;;;7.00;99.90;;;;;;7148279;33;20124;-62
2022/01/28 15:36:10;;;;;;;26.12;3.80;;;6.90;99.90;;;;;;7145259;33;20490;-61
2022/01/28 15:40:12;;;;;;;12.88;3.05;;;6.90;99.90;;;;;;7142160;33;20185;-62
2022/01/28 15:44:14;;;;;;;12.15;3.33;;;6.90;99.90;;;;;;7147292;33;20110;-62
2022/01/28 15:48:16;;;;;;;10.90;3.00;;;6.80;99.90;;;;;;7148555;33;20110;-63
2022/01/28 15:52:17;;;;;;;19.12;3.83;;;6.70;99.90;;;;;;7162056;33;20145;-62
2022/01/28 15:56:19;;;;;;;15.45;2.80;;;6.70;99.90;;;;;;7137954;33;20228;-61
2022/01/28 16:00:21;;;;;;;15.32;2.65;;;6.60;99.90;;;;;;7156691;32;20287;-61
2022/01/28 16:04:22;;;;;;;12.48;2.75;;;6.50;99.90;;;;;;7179032;32;20564;-61
2022/01/28 16:08:24;;;;;;;11.88;3.12;;;6.40;99.90;;;;;;7174502;32;20523;-60
2022/01/28 16:12:45;;;;;;;12.52;3.30;;;6.40;99.90;;;;;;7179092;32;20106;-60
2022/01/28 16:21:10;;;;;;;18.85;3.97;;;6.20;99.90;;;;;;7177201;32;20558;-59
2022/01/28 16:25:12;;;;;;;14.73;4.22;;;6.00;99.90;;;;;;7179984;33;20110;-60
2022/01/28 16:29:14;;;;;;;22.90;3.75;;;6.00;99.90;;;;;;7179336;32;20113;-59
2022/01/28 16:33:16;;;;;;;14.48;4.00;;;6.00;99.90;;;;;;7173806;32;20128;-59
2022/01/28 16:37:18;;;;;;;18.05;4.10;;;5.90;99.90;;;;;;7178373;32;20106;-59
2022/01/28 16:41:23;;;;;;;12.98;4.53;;;6.00;99.90;;;;;;7178317;32;20132;-60
2022/01/28 16:45:24;;;;;;;17.70;5.82;;;6.10;99.90;;;;;;7177991;32;21726;-61
2022/01/28 16:49:26;;;;;;;23.95;7.22;;;6.10;99.90;;;;;;7173938;32;20113;-60
2022/01/28 16:53:29;;;;;;;24.95;9.75;;;6.20;99.90;;;;;;7161033;32;20117;-59
2022/01/28 16:57:32;;;;;;;26.08;11.75;;;6.20;99.90;;;;;;7178144;32;20172;-59
2022/01/28 17:01:34;;;;;;;33.92;12.88;;;6.10;99.90;;;;;;7174266;32;20208;-60
2022/01/28 17:05:36;;;;;;;37.47;18.15;;;6.00;99.90;;;;;;7178364;32;20133;-59
2022/01/28 17:09:49;;;;;;;34.78;18.30;;;6.00;99.90;;;;;;7158896;33;20482;-60
2022/01/28 17:13:51;;;;;;;37.03;19.35;;;5.80;99.90;;;;;;7159788;33;20234;-60
2022/01/28 17:17:54;;;;;;;42.03;19.08;;;5.80;99.90;;;;;;7177156;33;20120;-60
2022/01/28 17:21:55;;;;;;;39.35;20.05;;;5.60;99.90;;;;;;7170906;33;20200;-61
2022/01/28 17:25:58;;;;;;;37.38;18.45;;;5.60;99.90;;;;;;7173788;33;20106;-61
2022/01/28 17:30:00;;;;;;;36.85;19.37;;;5.50;99.90;;;;;;7175938;33;20124;-62
2022/01/28 17:34:01;;;;;;;35.33;20.48;;;5.40;99.90;;;;;;7175740;33;20447;-63
2022/01/28 17:38:04;;;;;;;38.20;19.50;;;5.40;99.90;;;;;;7161150;33;20482;-59
2022/01/28 17:42:06;;;;;;;39.17;19.48;;;5.40;99.90;;;;;;7178876;33;20196;-59
2022/01/28 17:46:08;;;;;;;32.25;18.92;;;5.30;99.90;;;;;;7176816;33;20185;-59
2022/01/28 17:50:10;;;;;;;39.08;18.23;;;5.30;99.90;;;;;;7169747;33;20518;-59
2022/01/28 17:54:14;;;;;;;31.70;18.45;;;5.30;99.90;;;;;;7167780;33;20132;-59
2022/01/28 17:58:15;;;;;;;29.95;17.67;;;5.30;99.90;;;;;;7178041;33;20514;-60
2022/01/28 18:02:17;;;;;;;35.88;18.75;;;5.30;99.90;;;;;;7168868;33;20109;-59
2022/01/28 18:06:19;;;;;;;32.50;19.37;;;5.30;99.90;;;;;;7172396;33;20121;-58
2022/01/28 18:10:21;;;;;;;44.00;19.67;;;5.30;99.90;;;;;;7173992;33;20528;-58
2022/01/28 18:14:23;;;;;;;35.35;22.17;;;5.30;99.90;;;;;;7171739;33;20109;-59
2022/01/28 18:18:25;;;;;;;35.95;21.02;;;5.30;99.90;;;;;;7175548;33;20200;-59
2022/01/28 18:22:27;;;;;;;36.17;19.98;;;5.30;99.90;;;;;;7174592;33;20125;-59
2022/01/28 18:26:29;;;;;;;45.47;20.10;;;5.40;99.90;;;;;;7172860;33;20123;-60
2022/01/28 18:30:31;;;;;;;35.38;19.75;;;5.40;99.90;;;;;;7174517;33;20491;-58
2022/01/28 18:34:34;;;;;;;35.13;20.62;;;5.30;99.90;;;;;;7178061;32;20121;-58
2022/01/28 18:38:35;;;;;;;32.00;19.05;;;5.30;99.90;;;;;;7166095;32;20206;-60
2022/01/28 18:42:50;;;;;;;36.42;19.60;;;5.30;99.90;;;;;;7175834;32;20127;-59
2022/01/28 18:47:07;;;;;;;33.25;18.52;;;5.30;99.90;;;;;;7175647;32;20283;-59
2022/01/28 18:51:08;;;;;;;29.83;18.80;;;5.30;99.90;;;;;;7180327;32;20167;-60
2022/01/28 18:55:10;;;;;;;32.13;18.50;;;5.30;99.90;;;;;;7178917;32;20218;-60
2022/01/28 18:59:12;;;;;;;32.47;19.25;;;5.30;99.90;;;;;;7179202;32;20264;-58
2022/01/28 19:03:14;;;;;;;40.30;18.48;;;5.30;99.90;;;;;;7174692;32;20188;-59
2022/01/28 19:07:16;;;;;;;31.33;19.60;;;5.20;99.90;;;;;;7177360;32;20555;-59
2022/01/28 19:11:17;;;;;;;31.20;19.00;;;5.30;99.90;;;;;;7172302;32;20494;-59
2022/01/28 19:15:21;;;;;;;34.17;19.40;;;5.20;99.90;;;;;;7173819;32;20129;-60
2022/01/28 19:19:23;;;;;;;32.92;17.80;;;5.20;99.90;;;;;;7181932;32;20208;-59
2022/01/28 19:23:25;;;;;;;34.50;18.98;;;5.30;99.90;;;;;;7175852;32;20193;-60
2022/01/28 19:27:27;;;;;;;32.60;18.08;;;5.30;99.90;;;;;;7179478;32;20114;-60
2022/01/28 19:31:28;;;;;;;32.33;19.08;;;5.40;99.90;;;;;;7179820;32;20105;-59
2022/01/28 19:35:31;;;;;;;34.53;17.65;;;5.40;99.90;;;;;;7181441;32;20139;-59
2022/01/28 19:39:34;;;;;;;34.03;17.92;;;5.40;99.90;;;;;;7177474;32;20250;-60
2022/01/28 19:43:37;;;;;;;32.30;17.98;;;5.40;99.90;;;;;;7176820;32;20134;-59
2022/01/28 19:47:41;;;;;;;33.95;18.33;;;5.40;99.90;;;;;;7178906;32;20105;-59
2022/01/28 19:51:44;;;;;;;33.10;18.58;;;5.40;99.90;;;;;;7175614;32;20223;-60
2022/01/28 19:55:46;;;;;;;33.58;18.30;;;5.30;99.90;;;;;;7175409;32;20490;-60
2022/01/28 19:59:48;;;;;;;37.83;20.30;;;5.30;99.90;;;;;;7168236;33;20098;-60
2022/01/28 20:03:50;;;;;;;32.03;19.23;;;5.40;99.90;;;;;;7176467;33;20097;-61
2022/01/28 20:07:51;;;;;;;37.13;18.92;;;5.30;99.90;;;;;;7180787;33;20841;-59
2022/01/28 20:11:53;;;;;;;36.65;18.55;;;5.20;99.90;;;;;;7178617;32;20628;-60
2022/01/28 20:15:55;;;;;;;38.42;20.50;;;5.20;99.90;;;;;;7177203;32;20129;-59
2022/01/28 20:19:57;;;;;;;33.45;19.45;;;5.20;99.90;;;;;;7178236;32;20135;-60
2022/01/28 20:23:59;;;;;;;35.13;18.62;;;5.30;99.90;;;;;;7170553;33;20228;-60
2022/01/28 20:28:01;;;;;;;38.83;20.00;;;5.40;99.90;;;;;;7178699;32;20106;-60
2022/01/28 20:32:04;;;;;;;32.88;18.83;;;5.30;99.90;;;;;;7179422;32;20211;-60
2022/01/28 20:36:07;;;;;;;33.85;18.70;;;5.40;99.90;;;;;;7180807;32;20105;-61
2022/01/28 20:40:09;;;;;;;33.65;18.02;;;5.40;99.90;;;;;;7164501;32;20105;-59
2022/01/28 20:44:10;;;;;;;38.85;19.37;;;5.50;99.90;;;;;;7169000;32;20737;-60
2022/01/28 20:48:12;;;;;;;35.03;19.37;;;5.50;99.90;;;;;;7178753;33;20129;-60
2022/01/28 20:52:14;;;;;;;34.20;20.52;;;5.60;99.90;;;;;;7177627;33;20208;-61
2022/01/28 20:56:16;;;;;;;38.03;19.58;;;5.60;99.90;;;;;;7164749;33;20188;-59
2022/01/28 21:00:18;;;;;;;40.63;20.62;;;5.60;99.90;;;;;;7178650;33;20113;-60
2022/01/28 21:04:21;;;;;;;39.70;19.95;;;5.60;99.90;;;;;;7177923;33;20113;-59
2022/01/28 21:08:23;;;;;;;36.92;20.45;;;5.60;99.90;;;;;;7180761;33;20212;-60
2022/01/28 21:12:25;;;;;;;36.60;20.67;;;5.60;99.90;;;;;;7174610;33;20208;-60
2022/01/28 21:16:26;;;;;;;43.45;22.65;;;5.70;99.90;;;;;;7177260;33;20109;-60
2022/01/28 21:20:28;;;;;;;37.13;21.25;;;5.70;99.90;;;;;;7167287;33;20110;-60
2022/01/28 21:24:30;;;;;;;40.72;20.83;;;5.70;99.90;;;;;;7175383;33;20136;-60
2022/01/28 21:28:32;;;;;;;35.85;20.65;;;5.70;99.90;;;;;;7178655;33;20105;-59
2022/01/28 21:32:33;;;;;;;35.80;19.37;;;5.70;99.90;;;;;;7169397;33;20227;-58
2022/01/28 21:36:35;;;;;;;39.10;20.20;;;5.70;99.90;;;;;;7176798;33;20789;-60
2022/01/28 21:40:37;;;;;;;32.42;18.05;;;5.70;99.90;;;;;;7176525;33;20129;-59
2022/01/28 21:44:38;;;;;;;37.10;19.37;;;5.70;99.90;;;;;;7176262;33;20124;-59
2022/01/28 21:48:40;;;;;;;36.13;18.17;;;5.60;99.90;;;;;;7175689;33;20506;-60
2022/01/28 21:52:42;;;;;;;30.35;16.83;;;5.60;99.90;;;;;;7175051;33;20201;-60
2022/01/28 21:56:44;;;;;;;32.42;18.02;;;5.70;99.90;;;;;;7168360;33;20919;-61
2022/01/28 22:00:47;;;;;;;29.63;16.60;;;5.60;99.90;;;;;;7172670;33;20424;-61
2022/01/28 22:04:49;;;;;;;34.38;15.82;;;5.60;99.90;;;;;;7175607;33;20208;-61
2022/01/28 22:08:51;;;;;;;32.72;15.30;;;5.70;99.90;;;;;;7177148;32;20122;-61
2022/01/28 22:12:52;;;;;;;31.27;14.02;;;5.60;99.90;;;;;;7174985;33;20123;-61
2022/01/28 22:16:56;;;;;;;28.27;13.88;;;5.70;99.90;;;;;;7174300;33;20251;-62
2022/01/28 22:20:58;;;;;;;28.52;15.30;;;5.60;99.90;;;;;;7179354;33;20196;-61
2022/01/28 22:25:00;;;;;;;26.12;14.25;;;5.60;99.90;;;;;;7179141;33;20149;-61
2022/01/28 22:29:02;;;;;;;25.55;13.15;;;5.60;99.90;;;;;;7171387;33;20215;-61